createdAt,value
2022-11-22T00:00:21.913Z,8.59
2022-11-22T00:02:48.499Z,8.78
2022-11-22T00:05:15.075Z,8.74
2022-11-22T00:07:42.115Z,8.91
2022-11-22T00:10:11.135Z,9.09
2022-11-22T00:12:39.234Z,9.00
2022-11-22T00:15:06.044Z,8.85
2022-11-22T00:17:33.397Z,8.81
2022-11-22T00:20:00.009Z,8.66
2022-11-22T00:22:26.648Z,8.77
2022-11-22T00:24:53.764Z,8.72
2022-11-22T00:27:20.954Z,8.68
2022-11-22T00:29:47.525Z,8.60
2022-11-22T00:32:14.219Z,8.65
2022-11-22T00:34:40.818Z,8.71
2022-11-22T00:37:07.765Z,8.76
2022-11-22T00:39:34.559Z,8.65
2022-11-22T00:42:03.395Z,8.77
2022-11-22T00:44:29.979Z,8.61
2022-11-22T00:46:57.154Z,8.55
2022-11-22T00:49:23.787Z,8.64
2022-11-22T00:51:50.637Z,8.65
2022-11-22T00:54:17.196Z,8.49
2022-11-22T00:56:44.192Z,8.60
2022-11-22T00:59:10.706Z,8.66
2022-11-22T01:01:37.409Z,8.72
2022-11-22T01:04:04.124Z,8.72
2022-11-22T01:06:30.714Z,8.74
2022-11-22T01:08:57.262Z,8.73
2022-11-22T01:11:23.953Z,8.75
2022-11-22T01:13:50.457Z,8.92
2022-11-22T01:16:17.046Z,8.92
2022-11-22T01:18:43.736Z,9.04
2022-11-22T01:21:10.362Z,9.10
2022-11-22T01:23:37.656Z,9.01
2022-11-22T01:26:08.848Z,8.94
2022-11-22T01:28:39.178Z,8.89
2022-11-22T01:31:06.352Z,8.97
2022-11-22T01:33:33.099Z,9.02
2022-11-22T01:35:59.924Z,9.13
2022-11-22T01:38:26.625Z,8.99
2022-11-22T01:40:53.642Z,8.97
2022-11-22T01:43:24.061Z,9.01
2022-11-22T01:45:56.538Z,8.76
2022-11-22T01:48:40.807Z,8.81
2022-11-22T01:51:18.582Z,8.92
2022-11-22T01:53:46.532Z,8.99
2022-11-22T01:56:15.126Z,8.87
2022-11-22T01:58:48.311Z,8.89
2022-11-22T02:01:15.011Z,9.06
2022-11-22T02:03:43.772Z,8.75
2022-11-22T02:06:10.619Z,8.81
2022-11-22T02:08:55.142Z,8.97
2022-11-22T02:11:22.032Z,9.09
2022-11-22T02:13:50.959Z,9.02
2022-11-22T02:16:17.552Z,9.07
2022-11-22T02:18:44.205Z,9.12
2022-11-22T02:21:11.256Z,9.28
2022-11-22T02:23:45.716Z,9.07
2022-11-22T02:26:12.432Z,9.28
2022-11-22T02:28:39.660Z,9.21
2022-11-22T02:31:06.526Z,9.21
2022-11-22T02:33:33.300Z,9.16
2022-11-22T02:36:00.003Z,8.88
2022-11-22T02:38:30.943Z,8.98
2022-11-22T02:41:02.288Z,9.09
2022-11-22T02:43:36.394Z,9.23
2022-11-22T02:46:08.109Z,9.21
2022-11-22T02:48:34.706Z,9.17
2022-11-22T02:51:01.563Z,9.25
2022-11-22T02:53:30.646Z,9.10
2022-11-22T02:55:57.798Z,9.02
2022-11-22T02:58:24.338Z,9.11
2022-11-22T03:00:51.072Z,8.96
2022-11-22T03:03:17.689Z,8.83
2022-11-22T03:05:44.736Z,8.85
2022-11-22T03:08:11.287Z,8.81
2022-11-22T03:10:37.840Z,8.68
2022-11-22T03:13:04.388Z,8.65
2022-11-22T03:15:30.867Z,8.80
2022-11-22T03:18:01.929Z,8.73
2022-11-22T03:20:28.912Z,8.65
2022-11-22T03:22:55.498Z,8.45
2022-11-22T03:25:22.240Z,8.65
2022-11-22T03:27:48.957Z,8.52
2022-11-22T03:30:15.869Z,8.44
2022-11-22T03:32:42.418Z,8.39
2022-11-22T03:35:09.441Z,8.32
2022-11-22T03:37:36.051Z,8.26
2022-11-22T03:40:03.938Z,8.41
2022-11-22T03:42:30.805Z,8.29
2022-11-22T03:44:57.951Z,8.52
2022-11-22T03:47:24.479Z,8.40
2022-11-22T03:49:51.361Z,8.55
2022-11-22T03:52:18.454Z,8.53
2022-11-22T03:54:45.017Z,8.45
2022-11-22T03:57:11.564Z,8.62
2022-11-22T03:59:38.120Z,8.64
2022-11-22T04:02:04.830Z,8.51
2022-11-22T04:04:31.465Z,8.43
2022-11-22T04:06:58.030Z,8.59
2022-11-22T04:09:24.585Z,8.45
2022-11-22T04:11:51.205Z,8.34
2022-11-22T04:14:36.493Z,8.27
2022-11-22T04:17:03.113Z,8.33
2022-11-22T04:19:29.977Z,8.29
2022-11-22T04:21:56.774Z,8.21
2022-11-22T04:24:41.723Z,8.23
2022-11-22T04:27:08.293Z,8.18
2022-11-22T04:29:34.849Z,8.15
2022-11-22T04:32:20.142Z,8.10
2022-11-22T04:34:46.675Z,8.15
2022-11-22T04:37:13.291Z,8.08
2022-11-22T04:39:39.794Z,8.09
2022-11-22T04:42:25.297Z,8.09
2022-11-22T04:44:51.875Z,8.04
2022-11-22T04:47:37.426Z,7.96
2022-11-22T04:50:25.660Z,7.87
2022-11-22T04:52:57.390Z,7.86
2022-11-22T04:55:25.084Z,7.84
2022-11-22T04:57:58.849Z,7.77
2022-11-22T05:00:27.901Z,7.79
2022-11-22T05:02:54.523Z,7.74
2022-11-22T05:05:21.072Z,7.68
2022-11-22T05:07:47.616Z,7.56
2022-11-22T05:10:15.524Z,7.54
2022-11-22T05:12:43.423Z,7.49
2022-11-22T05:15:11.170Z,7.49
2022-11-22T05:17:38.374Z,7.46
2022-11-22T05:20:06.433Z,7.40
2022-11-22T05:22:52.050Z,7.41
2022-11-22T05:25:24.041Z,7.47
2022-11-22T05:27:53.362Z,7.44
2022-11-22T05:30:20.117Z,7.43
2022-11-22T05:32:46.656Z,7.54
2022-11-22T05:35:13.316Z,7.86
2022-11-22T05:37:39.870Z,8.04
2022-11-22T05:40:07.092Z,8.02
2022-11-22T05:42:34.762Z,8.10
2022-11-22T05:45:01.264Z,8.00
2022-11-22T05:47:27.846Z,8.12
2022-11-22T05:49:54.448Z,7.78
2022-11-22T05:52:20.999Z,7.68
2022-11-22T05:54:47.580Z,7.76
2022-11-22T05:57:14.135Z,8.01
2022-11-22T05:59:44.143Z,8.09
2022-11-22T06:02:11.167Z,8.40
2022-11-22T06:04:37.690Z,8.48
2022-11-22T06:07:09.573Z,8.64
2022-11-22T06:09:36.840Z,8.40
2022-11-22T06:12:06.203Z,8.34
2022-11-22T06:14:32.734Z,8.34
2022-11-22T06:16:59.260Z,8.27
2022-11-22T06:19:25.878Z,8.44
2022-11-22T06:21:52.611Z,8.73
2022-11-22T06:24:19.193Z,8.53
2022-11-22T06:26:45.697Z,8.31
2022-11-22T06:29:12.443Z,8.34
2022-11-22T06:31:38.983Z,8.26
2022-11-22T06:34:05.608Z,8.50
2022-11-22T06:36:33.910Z,8.65
2022-11-22T06:39:00.597Z,8.77
2022-11-22T06:41:31.177Z,8.77
2022-11-22T06:43:57.716Z,8.65
2022-11-22T06:46:25.806Z,8.66
2022-11-22T06:48:52.642Z,8.65
2022-11-22T06:51:24.417Z,8.68
2022-11-22T06:53:51.863Z,8.66
2022-11-22T06:56:21.019Z,8.69
2022-11-22T06:58:49.060Z,8.65
2022-11-22T07:01:29.471Z,8.64
2022-11-22T07:04:00.489Z,8.37
2022-11-22T07:06:32.016Z,8.50
2022-11-22T07:08:59.843Z,8.53
2022-11-22T07:11:28.136Z,8.53
2022-11-22T07:13:56.682Z,8.21
2022-11-22T07:16:24.863Z,8.15
2022-11-22T07:18:51.506Z,8.26
2022-11-22T07:21:22.946Z,8.28
2022-11-22T07:23:51.639Z,8.22
2022-11-22T07:26:19.677Z,8.20
2022-11-22T07:28:46.717Z,8.21
2022-11-22T07:31:14.481Z,8.22
2022-11-22T07:33:42.548Z,8.25
2022-11-22T07:36:10.349Z,8.35
2022-11-22T07:38:37.380Z,8.38
2022-11-22T07:41:04.237Z,8.30
2022-11-22T07:43:31.104Z,8.35
2022-11-22T07:46:05.513Z,8.40
2022-11-22T07:48:32.356Z,8.50
2022-11-22T07:51:06.827Z,8.61
2022-11-22T07:53:33.685Z,8.81
2022-11-22T07:56:04.393Z,8.52
2022-11-22T07:58:31.815Z,8.73
2022-11-22T08:00:58.438Z,8.80
2022-11-22T08:03:28.904Z,8.68
2022-11-22T08:06:00.627Z,8.66
2022-11-22T08:08:27.380Z,8.66
2022-11-22T08:10:54.508Z,8.74
2022-11-22T08:13:21.564Z,8.81
2022-11-22T08:15:54.709Z,8.76
2022-11-22T08:18:22.232Z,8.82
2022-11-22T08:20:48.814Z,8.82
2022-11-22T08:23:15.400Z,8.99
2022-11-22T08:25:41.944Z,9.06
2022-11-22T08:28:11.258Z,8.98
2022-11-22T08:30:37.824Z,9.09
2022-11-22T08:33:04.475Z,9.10
2022-11-22T08:35:31.107Z,9.31
2022-11-22T08:38:03.045Z,9.27
2022-11-22T08:40:29.691Z,9.39
2022-11-22T08:42:56.549Z,9.28
2022-11-22T08:45:25.336Z,9.28
2022-11-22T08:47:52.539Z,9.27
2022-11-22T08:50:19.332Z,9.47
2022-11-22T08:52:46.076Z,9.62
2022-11-22T08:55:13.405Z,9.74
2022-11-22T08:57:39.968Z,9.79
2022-11-22T09:00:07.327Z,9.83
2022-11-22T09:02:33.876Z,9.80
2022-11-22T09:05:00.821Z,10.05
2022-11-22T09:10:15.907Z,10.06
2022-11-22T09:12:46.196Z,10.35
2022-11-22T09:15:12.992Z,10.18
2022-11-22T09:17:40.057Z,10.28
2022-11-22T09:20:07.187Z,10.16
2022-11-22T09:22:33.760Z,10.18
2022-11-22T09:25:00.659Z,10.22
2022-11-22T09:27:27.270Z,10.39
2022-11-22T09:29:53.823Z,10.46
2022-11-22T09:32:20.406Z,10.59
2022-11-22T09:34:46.913Z,10.61
2022-11-22T09:37:17.416Z,10.42
2022-11-22T09:39:48.626Z,10.31
2022-11-22T09:42:44.154Z,10.31
2022-11-22T09:45:22.378Z,10.55
2022-11-22T09:48:36.713Z,10.48
2022-11-22T09:51:10.248Z,10.49
2022-11-22T09:54:06.525Z,10.35
2022-11-22T09:56:34.135Z,10.34
2022-11-22T09:59:05.134Z,10.35
2022-11-22T10:01:39.120Z,10.30
2022-11-22T10:04:11.681Z,10.55
2022-11-22T10:06:44.077Z,10.43
2022-11-22T10:09:14.193Z,10.39
2022-11-22T10:11:45.807Z,10.39
2022-11-22T10:14:52.543Z,10.33
2022-11-22T10:17:55.775Z,10.10
2022-11-22T10:20:24.808Z,9.98
2022-11-22T10:22:51.673Z,9.94
2022-11-22T10:25:45.135Z,9.97
2022-11-22T10:28:25.318Z,10.16
2022-11-22T10:31:00.347Z,10.22
2022-11-22T10:33:42.816Z,10.03
2022-11-22T10:36:26.326Z,9.91
2022-11-22T10:39:02.158Z,9.86
2022-11-22T10:41:36.432Z,10.10
2022-11-22T10:44:14.623Z,9.94
2022-11-22T10:46:56.909Z,9.95
2022-11-22T10:49:47.950Z,9.90
2022-11-22T10:52:44.548Z,9.95
2022-11-22T10:55:47.634Z,10.10
2022-11-22T10:58:52.353Z,10.22
2022-11-22T11:01:46.215Z,10.05
2022-11-22T11:04:14.618Z,9.78
2022-11-22T11:07:11.038Z,9.90
2022-11-22T11:12:41.512Z,9.87
2022-11-22T11:15:18.180Z,9.93
2022-11-22T11:17:46.537Z,10.35
2022-11-22T11:20:33.522Z,10.07
2022-11-22T11:23:14.335Z,10.08
2022-11-22T11:25:44.205Z,10.22
2022-11-22T11:28:23.047Z,10.36
2022-11-22T11:30:55.317Z,10.45
2022-11-22T11:33:33.367Z,10.58
2022-11-22T11:36:06.226Z,10.60
2022-11-22T11:38:42.304Z,10.47
2022-11-22T11:41:21.071Z,10.54
2022-11-22T11:43:49.004Z,10.43
2022-11-22T11:46:21.137Z,10.39
2022-11-22T11:48:51.100Z,10.43
2022-11-22T11:51:24.892Z,10.56
2022-11-22T11:53:58.990Z,10.54
2022-11-22T11:56:34.974Z,10.47
2022-11-22T11:59:07.887Z,10.49
2022-11-22T12:01:38.950Z,10.30
2022-11-22T12:04:07.211Z,10.28
2022-11-22T12:06:33.895Z,10.45
2022-11-22T12:09:01.796Z,10.43
2022-11-22T12:11:43.155Z,10.38
2022-11-22T12:14:37.572Z,10.40
2022-11-22T12:17:02.711Z,10.38
2022-11-22T12:19:39.991Z,10.35
2022-11-22T12:22:58.666Z,10.25
2022-11-22T12:25:32.934Z,10.35
2022-11-22T12:28:11.084Z,9.83
2022-11-22T12:30:39.593Z,9.80
2022-11-22T12:33:06.990Z,10.18
2022-11-22T12:35:41.125Z,9.36
2022-11-22T12:38:15.201Z,9.64
2022-11-22T12:40:43.806Z,9.87
2022-11-22T12:43:38.405Z,9.32
2022-11-22T12:46:10.065Z,9.57
2022-11-22T12:48:53.485Z,9.53
2022-11-22T12:51:27.976Z,9.46
2022-11-22T12:53:55.731Z,9.59
2022-11-22T12:56:32.752Z,9.63
2022-11-22T12:59:06.665Z,9.61
2022-11-22T13:01:45.307Z,9.75
2022-11-22T13:04:12.286Z,9.75
2022-11-22T13:06:58.301Z,9.69
2022-11-22T13:09:30.745Z,9.42
2022-11-22T13:12:10.444Z,9.60
2022-11-22T13:14:43.776Z,9.63
2022-11-22T13:17:12.835Z,9.75
2022-11-22T13:20:18.157Z,10.02
2022-11-22T13:22:59.511Z,10.23
2022-11-22T13:26:08.040Z,9.35
2022-11-22T13:28:39.069Z,9.91
2022-11-22T13:31:11.832Z,10.21
2022-11-22T13:33:55.887Z,9.64
2022-11-22T13:36:43.612Z,9.73
2022-11-22T13:39:17.769Z,9.69
2022-11-22T13:42:02.032Z,9.63
2022-11-22T13:44:31.853Z,10.10
2022-11-22T13:47:00.416Z,9.70
2022-11-22T13:49:45.111Z,9.97
2022-11-22T13:52:14.920Z,9.60
2022-11-22T13:54:47.786Z,9.80
2022-11-22T13:57:34.546Z,9.50
2022-11-22T14:00:16.690Z,9.77
2022-11-22T14:02:45.874Z,9.88
2022-11-22T14:05:32.136Z,9.23
2022-11-22T14:08:02.577Z,9.61
2022-11-22T14:10:32.931Z,9.44
2022-11-22T14:13:19.978Z,9.49
2022-11-22T14:16:11.000Z,9.48
2022-11-22T14:18:48.584Z,9.58
2022-11-22T14:21:44.417Z,9.94
2022-11-22T14:24:17.117Z,10.05
2022-11-22T14:27:02.116Z,9.76
2022-11-22T14:29:53.482Z,9.87
2022-11-22T14:32:22.560Z,9.19
2022-11-22T14:35:04.366Z,9.51
2022-11-22T14:37:34.041Z,9.25
2022-11-22T14:40:06.631Z,9.75
2022-11-22T14:42:36.532Z,9.93
2022-11-22T14:45:12.204Z,9.97
2022-11-22T14:47:41.707Z,9.88
2022-11-22T14:50:14.204Z,10.00
2022-11-22T14:52:43.129Z,9.87
2022-11-22T14:55:18.139Z,9.90
2022-11-22T14:57:46.345Z,9.95
2022-11-22T15:00:21.161Z,9.82
2022-11-22T15:03:16.671Z,9.81
2022-11-22T15:09:10.679Z,9.48
2022-11-22T15:09:51.024Z,9.62
2022-11-22T15:12:25.667Z,9.61
2022-11-22T15:58:01.619Z,9.47
2022-11-22T16:00:29.310Z,9.46
2022-11-22T16:03:03.138Z,9.17
2022-11-22T16:06:08.912Z,9.01
2022-11-22T16:08:32.961Z,8.98
2022-11-22T16:10:59.810Z,8.86
2022-11-22T16:13:38.834Z,9.12
2022-11-22T16:16:12.724Z,9.32
2022-11-22T16:18:44.357Z,9.49
2022-11-22T16:21:12.165Z,9.65
2022-11-22T16:23:45.826Z,9.52
2022-11-22T16:26:29.549Z,9.68
2022-11-22T16:29:10.960Z,9.66
2022-11-22T16:31:37.767Z,9.57
2022-11-22T16:34:12.748Z,9.68
2022-11-22T16:36:39.352Z,9.68
2022-11-22T16:39:05.892Z,9.69
2022-11-22T16:41:34.518Z,9.52
2022-11-22T16:44:02.952Z,9.67
2022-11-22T16:46:29.739Z,9.73
2022-11-22T16:48:58.812Z,9.77
2022-11-22T16:51:30.086Z,9.78
2022-11-22T16:53:59.283Z,9.72
2022-11-22T16:56:32.730Z,9.83
2022-11-22T16:59:11.110Z,9.38
2022-11-22T17:01:40.876Z,9.70
2022-11-22T17:04:07.597Z,9.67
2022-11-22T17:06:34.131Z,9.75
2022-11-22T17:09:00.921Z,9.76
2022-11-22T17:11:30.039Z,9.39
2022-11-22T17:13:57.197Z,9.53
2022-11-22T17:16:23.989Z,9.80
2022-11-22T17:18:53.555Z,9.55
2022-11-22T17:21:32.944Z,9.72
2022-11-22T17:24:07.244Z,9.80
2022-11-22T17:26:34.809Z,9.81
2022-11-22T17:29:01.631Z,9.79
2022-11-22T17:31:28.609Z,9.70
2022-11-22T17:33:58.074Z,9.57
2022-11-22T17:36:28.646Z,9.71
2022-11-22T17:38:55.835Z,9.77
2022-11-22T17:41:22.946Z,9.70
2022-11-22T17:43:50.658Z,9.82
2022-11-22T17:46:17.486Z,9.77
2022-11-22T17:48:54.245Z,9.93
2022-11-22T17:51:21.003Z,9.82
2022-11-22T17:53:48.390Z,9.57
2022-11-22T17:56:14.982Z,9.54
2022-11-22T17:58:41.825Z,9.45
2022-11-22T18:01:10.917Z,9.22
2022-11-22T18:03:37.917Z,9.20
2022-11-22T18:06:04.666Z,9.14
2022-11-22T18:08:32.332Z,9.15
2022-11-22T18:11:02.031Z,9.27
2022-11-22T18:13:30.161Z,9.13
2022-11-22T18:16:03.267Z,9.25
2022-11-22T18:21:17.745Z,9.23
2022-11-22T18:23:45.254Z,9.32
2022-11-22T18:29:32.599Z,9.30
2022-11-22T18:31:52.244Z,9.38
2022-11-22T18:34:19.710Z,9.55
2022-11-22T18:37:03.762Z,9.51
2022-11-22T18:39:37.764Z,9.37
2022-11-22T18:42:06.484Z,9.68
2022-11-22T18:44:33.042Z,9.36
2022-11-22T18:46:59.810Z,9.20
2022-11-22T18:49:26.371Z,9.44
2022-11-22T18:51:52.856Z,9.64
2022-11-22T18:54:21.586Z,9.71
2022-11-22T18:56:48.562Z,9.36
2022-11-22T18:59:16.131Z,9.56
2022-11-22T19:01:45.909Z,9.18
2022-11-22T19:04:15.358Z,9.22
2022-11-22T19:06:42.795Z,9.40
2022-11-22T19:09:09.488Z,9.21
2022-11-22T19:11:36.145Z,9.00
2022-11-22T19:14:03.003Z,9.30
2022-11-22T19:16:30.247Z,9.29
2022-11-22T19:18:58.311Z,9.42
2022-11-22T19:21:26.741Z,9.42
2022-11-22T19:23:54.088Z,9.65
2022-11-22T19:26:22.944Z,9.57
2022-11-22T19:28:52.095Z,9.60
2022-11-22T19:31:21.155Z,9.61
2022-11-22T19:33:48.299Z,9.57
2022-11-22T19:36:18.069Z,9.59
2022-11-22T19:38:45.581Z,9.61
2022-11-22T19:41:15.220Z,9.62
2022-11-22T19:43:41.796Z,9.73
2022-11-22T19:46:08.428Z,9.68
2022-11-22T19:48:35.777Z,9.68
2022-11-22T19:51:13.625Z,9.72
2022-11-22T19:53:40.686Z,9.55
2022-11-22T19:56:13.545Z,9.64
2022-11-22T19:58:40.180Z,9.60
2022-11-22T20:01:10.932Z,9.64
2022-11-22T20:03:41.808Z,9.55
2022-11-22T20:06:12.362Z,9.59
2022-11-22T20:08:39.160Z,9.61
2022-11-22T20:11:11.223Z,9.53
2022-11-22T20:13:41.258Z,9.60
2022-11-22T20:16:17.898Z,9.72
2022-11-22T20:18:44.546Z,9.70
2022-11-22T20:21:12.734Z,9.69
2022-11-22T20:23:40.689Z,9.68
2022-11-22T20:26:09.816Z,9.33
2022-11-22T20:28:40.257Z,9.52
2022-11-22T20:31:17.941Z,9.51
2022-11-22T20:33:50.805Z,9.48
2022-11-22T20:36:25.460Z,9.38
2022-11-22T20:38:52.717Z,9.37
2022-11-22T20:41:21.650Z,9.21
2022-11-22T20:43:49.507Z,9.00
2022-11-22T20:46:19.045Z,8.89
2022-11-22T20:48:47.432Z,9.02
2022-11-22T20:51:18.880Z,9.03
2022-11-22T20:53:45.920Z,9.16
2022-11-22T20:56:17.147Z,8.96
2022-11-22T20:58:44.573Z,8.97
2022-11-22T21:01:23.192Z,8.69
2022-11-22T21:03:50.020Z,8.37
2022-11-22T21:06:17.776Z,8.61
2022-11-22T21:08:47.803Z,8.62
2022-11-22T21:11:16.917Z,8.58
2022-11-22T21:13:44.673Z,8.53
2022-11-22T21:16:24.488Z,8.41
2022-11-22T21:18:55.296Z,8.46
2022-11-22T21:21:23.421Z,8.41
2022-11-22T21:23:52.089Z,8.40
2022-11-22T21:26:19.305Z,8.46
2022-11-22T21:28:45.906Z,8.48
2022-11-22T21:31:12.482Z,8.45
2022-11-22T21:33:39.251Z,8.24
2022-11-22T21:36:06.908Z,8.07
2022-11-22T21:38:35.093Z,8.04
2022-11-22T21:41:31.791Z,8.05
2022-11-22T21:43:50.875Z,7.94
2022-11-22T21:46:18.323Z,7.97
2022-11-22T21:48:44.991Z,7.72
2022-11-22T21:51:11.466Z,7.75
2022-11-22T21:53:37.950Z,7.55
2022-11-22T21:56:04.524Z,7.49
2022-11-22T21:58:31.233Z,7.43
2022-11-22T22:01:01.577Z,7.40
2022-11-22T22:03:29.846Z,7.76
2022-11-22T22:05:57.654Z,7.50
2022-11-22T22:08:26.427Z,7.45
2022-11-22T22:10:53.279Z,7.45
2022-11-22T22:13:20.303Z,7.41
2022-11-22T22:15:47.892Z,7.29
2022-11-22T22:18:14.696Z,7.28
2022-11-22T22:20:41.218Z,7.27
2022-11-22T22:23:07.838Z,7.20
2022-11-22T22:25:36.324Z,7.14
2022-11-22T22:28:02.942Z,7.20
2022-11-22T22:30:29.591Z,7.12
2022-11-22T22:32:56.194Z,7.21
2022-11-22T22:35:23.159Z,7.18
2022-11-22T22:37:49.817Z,7.19
2022-11-22T22:40:16.383Z,7.13
2022-11-22T22:42:43.945Z,7.09
2022-11-22T22:45:11.074Z,7.11
2022-11-22T22:47:38.030Z,7.02
2022-11-22T22:50:04.913Z,7.06
2022-11-22T22:52:31.419Z,6.96
2022-11-22T22:54:57.956Z,6.99
2022-11-22T22:57:24.450Z,6.92
2022-11-22T22:59:51.277Z,6.91
2022-11-22T23:02:18.843Z,7.08
2022-11-22T23:04:45.372Z,6.97
2022-11-22T23:07:11.875Z,6.97
2022-11-22T23:09:38.768Z,7.02
2022-11-22T23:12:11.240Z,6.96
2022-11-22T23:14:44.798Z,6.92
2022-11-22T23:17:11.547Z,6.86
2022-11-22T23:19:38.397Z,6.69
2022-11-22T23:22:05.306Z,6.73
2022-11-22T23:24:32.926Z,6.69
2022-11-22T23:26:59.970Z,6.75
2022-11-22T23:29:26.778Z,6.68
2022-11-22T23:31:53.454Z,6.67
2022-11-22T23:34:20.255Z,6.63
2022-11-22T23:36:47.058Z,6.61
2022-11-22T23:39:13.599Z,6.60
2022-11-22T23:41:40.192Z,6.50
2022-11-22T23:44:06.992Z,6.59
2022-11-22T23:46:33.626Z,6.51
2022-11-22T23:49:01.314Z,6.52
2022-11-22T23:51:29.174Z,6.44
2022-11-22T23:54:01.386Z,6.54
2022-11-22T23:56:29.619Z,6.68
2022-11-22T23:58:59.348Z,6.68
